Time;durP1;ratioP1;P1;durP2;ratioP2;P2;SDS_P1;SDS_P2;PMS_P1;PMS_P2;Temp;Humidity;BMP_temperature;BMP_pressure;BME280_temperature;BME280_humidity;BME280_pressure;Samples;Min_cycle;Max_cycle;Signal;HPM_P1;HPM_P2
2020/12/30 00:02:48;;;;;;;22.07;19.40;;;;;;;5.09;72.75;99261.25;6360675;27;20229;-67
2020/12/30 00:06:09;;;;;;;20.60;18.43;;;;;;;5.25;72.28;99257.63;6354450;27;20344;-68
2020/12/30 00:09:29;;;;;;;21.43;17.40;;;;;;;5.04;72.85;99261.31;6342347;27;20222;-69
2020/12/30 00:12:50;;;;;;;20.57;18.20;;;;;;;4.99;73.31;99267.41;6337780;27;20221;-69
2020/12/30 00:16:11;;;;;;;21.20;18.90;;;;;;;5.32;72.06;99259.25;6326406;27;20238;-69
2020/12/30 00:19:32;;;;;;;22.37;19.60;;;;;;;5.08;72.36;99264.72;6332433;27;20317;-69
2020/12/30 00:22:52;;;;;;;19.67;17.23;;;;;;;5.04;73.25;99263.03;6317219;27;20234;-68
2020/12/30 00:26:18;;;;;;;21.50;18.67;;;;;;;5.04;73.01;99269.06;6335382;28;20320;-68
2020/12/30 00:29:40;;;;;;;24.80;22.03;;;;;;;5.13;72.69;99281.00;6352268;27;20221;-68
2020/12/30 00:33:00;;;;;;;25.70;21.70;;;;;;;5.10;72.81;99286.22;6340829;27;20486;-68
2020/12/30 00:36:20;;;;;;;25.30;21.30;;;;;;;5.35;72.34;99273.00;6355547;27;20670;-68
2020/12/30 00:39:41;;;;;;;28.33;23.37;;;;;;;5.40;72.10;99276.38;6335265;27;20229;-68
2020/12/30 00:43:01;;;;;;;28.40;24.07;;;;;;;5.43;72.09;99276.31;6322350;28;20506;-68
2020/12/30 00:46:22;;;;;;;26.27;23.37;;;;;;;5.59;71.33;99277.00;6335398;27;20222;-69
2020/12/30 00:49:43;;;;;;;28.67;24.87;;;;;;;5.28;72.27;99283.41;6331287;28;20229;-67
2020/12/30 00:53:04;;;;;;;31.70;26.20;;;;;;;5.46;71.68;99276.28;6327939;28;20221;-69
2020/12/30 00:56:24;;;;;;;30.43;25.33;;;;;;;5.24;72.31;99292.06;6325226;27;20249;-67
2020/12/30 00:59:45;;;;;;;31.17;25.17;;;;;;;5.26;71.42;99302.38;6306287;28;20235;-67
2020/12/30 01:03:06;;;;;;;30.70;25.37;;;;;;;5.26;72.15;99295.47;6313184;28;20234;-67
2020/12/30 01:06:27;;;;;;;29.57;25.37;;;;;;;5.48;71.02;99303.78;6306996;28;20313;-67
2020/12/30 01:09:48;;;;;;;32.00;27.00;;;;;;;5.14;71.88;99308.53;6321503;28;20261;-68
2020/12/30 01:13:09;;;;;;;29.83;25.30;;;;;;;5.41;71.18;99309.94;6318540;27;20234;-68
2020/12/30 01:16:29;;;;;;;27.97;24.17;;;;;;;5.12;72.40;99318.00;6327641;27;20234;-68
2020/12/30 01:19:50;;;;;;;39.20;29.87;;;;;;;5.36;71.56;99316.88;6331071;28;20259;-68
2020/12/30 01:23:11;;;;;;;29.83;26.00;;;;;;;5.51;70.95;99315.84;6324714;27;20691;-68
2020/12/30 01:26:31;;;;;;;33.27;27.67;;;;;;;5.41;70.95;99319.38;6315260;28;20223;-68
2020/12/30 01:29:52;;;;;;;36.13;28.43;;;;;;;5.64;70.41;99322.56;6321303;27;20234;-68
2020/12/30 01:33:12;;;;;;;33.33;27.80;;;;;;;5.76;70.18;99325.81;6320182;28;20238;-68
2020/12/30 01:36:35;;;;;;;34.63;30.27;;;;;;;5.81;69.72;99324.06;6307642;28;20234;-68
2020/12/30 01:39:55;;;;;;;31.33;27.37;;;;;;;5.65;70.23;99332.00;6318217;27;20230;-68
2020/12/30 01:43:16;;;;;;;35.80;28.97;;;;;;;5.35;70.88;99335.81;6320606;28;20219;-68
2020/12/30 01:46:40;;;;;;;33.90;28.13;;;;;;;5.65;69.76;99339.75;6315549;27;20238;-69
2020/12/30 01:50:01;;;;;;;34.43;28.97;;;;;;;5.58;70.57;99329.50;6338317;27;20225;-69
2020/12/30 01:53:22;;;;;;;30.23;26.97;;;;;;;5.98;69.08;99331.63;6326292;27;20549;-69
2020/12/30 01:56:43;;;;;;;31.43;26.97;;;;;;;5.78;69.55;99343.03;6328087;28;22051;-69
2020/12/30 02:00:07;;;;;;;34.47;30.17;;;;;;;5.49;70.35;99338.25;6333154;27;20229;-69
2020/12/30 02:03:28;;;;;;;32.00;26.77;;;;;;;5.66;69.66;99341.47;6335317;27;20222;-69
2020/12/30 02:06:49;;;;;;;34.47;28.77;;;;;;;5.82;69.45;99343.84;6330092;27;20230;-69
2020/12/30 02:10:12;;;;;;;33.13;27.50;;;;;;;6.18;68.04;99339.06;6332875;27;20230;-69
2020/12/30 02:13:32;;;;;;;31.33;27.63;;;;;;;5.89;68.82;99337.72;6352806;27;20491;-69
2020/12/30 02:16:55;;;;;;;33.93;29.57;;;;;;;5.83;69.05;99348.13;6351887;27;20228;-69
2020/12/30 02:20:16;;;;;;;37.50;28.10;;;;;;;5.21;70.74;99354.03;6345947;27;20222;-68
2020/12/30 02:23:37;;;;;;;33.23;29.27;;;;;;;5.43;70.23;99348.63;6344374;27;20315;-68
2020/12/30 02:27:00;;;;;;;32.07;27.93;;;;;;;5.83;68.76;99354.16;6339265;27;20257;-68
2020/12/30 02:30:20;;;;;;;30.53;26.97;;;;;;;5.69;69.25;99362.06;6348692;27;20233;-68
2020/12/30 02:33:41;;;;;;;31.87;26.90;;;;;;;5.24;71.20;99354.00;6347133;27;20221;-68
2020/12/30 02:37:01;;;;;;;32.43;28.27;;;;;;;5.43;70.78;99361.53;6359172;27;20236;-68
2020/12/30 02:40:21;;;;;;;31.90;25.80;;;;;;;5.23;70.78;99357.44;6352331;27;20225;-68
2020/12/30 02:43:42;;;;;;;33.40;27.13;;;;;;;5.45;70.18;99347.75;6347378;27;20238;-69
2020/12/30 02:47:03;;;;;;;29.43;25.80;;;;;;;5.57;69.39;99351.91;6337626;27;20735;-69
2020/12/30 02:50:23;;;;;;;29.83;26.80;;;;;;;5.69;69.11;99359.50;6348472;27;20743;-69
2020/12/30 02:53:44;;;;;;;28.63;25.27;;;;;;;5.44;69.88;99358.09;6353882;27;20226;-69
2020/12/30 02:57:04;;;;;;;30.37;24.43;;;;;;;5.43;69.73;99353.78;6334250;27;20327;-68
2020/12/30 03:00:25;;;;;;;27.83;23.40;;;;;;;5.29;70.03;99353.94;6341629;27;20233;-68
2020/12/30 03:03:45;;;;;;;27.57;23.53;;;;;;;5.57;69.64;99357.06;6341744;27;20773;-68
2020/12/30 03:07:06;;;;;;;29.20;24.00;;;;;;;5.73;68.27;99357.72;6312917;28;20238;-68
2020/12/30 03:10:26;;;;;;;26.93;24.03;;;;;;;5.58;68.82;99358.75;6339018;28;20602;-68
2020/12/30 03:13:46;;;;;;;29.43;26.47;;;;;;;5.46;69.62;99359.75;6326377;28;20245;-68
2020/12/30 03:17:08;;;;;;;28.07;24.30;;;;;;;5.49;69.88;99369.22;6334917;28;21937;-68
2020/12/30 03:20:49;;;;;;;28.30;24.40;;;;;;;5.39;69.60;99372.75;6337919;28;20218;-68
2020/12/30 03:24:09;;;;;;;29.47;25.10;;;;;;;5.38;69.92;99374.50;6346400;28;20226;-68
2020/12/30 03:27:30;;;;;;;29.30;24.47;;;;;;;5.73;68.82;99371.50;6327855;28;20238;-69
2020/12/30 03:30:50;;;;;;;28.50;25.40;;;;;;;5.75;68.50;99373.22;6344866;28;20233;-69
2020/12/30 03:37:57;;;;;;;28.37;24.13;;;;;;;5.51;69.28;99372.66;6183389;28;20261;-69
2020/12/30 03:41:17;;;;;;;26.97;24.17;;;;;;;5.17;70.67;99373.00;6194424;28;20265;-70
2020/12/30 03:44:38;;;;;;;27.83;23.77;;;;;;;5.62;69.16;99385.41;6192382;28;20230;-70
2020/12/30 03:47:58;;;;;;;25.77;22.97;;;;;;;5.37;69.44;99387.41;6193476;28;20328;-69
2020/12/30 03:51:18;;;;;;;26.73;23.27;;;;;;;5.28;70.13;99384.06;6205751;28;20225;-69
2020/12/30 03:54:40;;;;;;;26.33;23.53;;;;;;;5.25;70.19;99386.69;6212823;28;20237;-69
2020/12/30 03:58:00;;;;;;;26.43;23.63;;;;;;;5.57;69.29;99388.06;6213738;28;20241;-69
2020/12/30 04:01:21;;;;;;;26.87;23.43;;;;;;;5.36;69.77;99385.72;6205438;28;20276;-69
2020/12/30 04:04:41;;;;;;;27.33;22.50;;;;;;;5.31;69.79;99381.47;6205078;28;20249;-69
2020/12/30 04:08:02;;;;;;;27.60;24.63;;;;;;;5.60;68.64;99387.16;6210633;28;20265;-69
2020/12/30 04:11:23;;;;;;;26.70;22.90;;;;;;;5.51;68.27;99388.13;6210223;28;20233;-69
2020/12/30 04:14:43;;;;;;;25.40;22.23;;;;;;;5.50;68.64;99386.41;6217787;28;20653;-68
2020/12/30 04:18:04;;;;;;;28.53;21.90;;;;;;;5.35;69.41;99399.47;6215594;28;20245;-68
2020/12/30 04:21:25;;;;;;;26.70;23.33;;;;;;;5.43;69.16;99405.41;6218672;28;20230;-68
2020/12/30 04:24:46;;;;;;;25.90;21.87;;;;;;;5.58;68.55;99405.25;6191406;28;20607;-68
2020/12/30 04:28:07;;;;;;;26.97;23.10;;;;;;;5.66;68.33;99408.63;6216996;28;20240;-68
2020/12/30 04:31:28;;;;;;;27.40;24.60;;;;;;;5.30;69.55;99408.13;6203105;28;20253;-69
2020/12/30 04:34:48;;;;;;;29.70;26.37;;;;;;;5.44;69.07;99412.31;6218758;28;20229;-69
2020/12/30 04:38:08;;;;;;;30.13;22.90;;;;;;;5.45;69.21;99419.19;6213935;28;20237;-68
2020/12/30 04:41:33;;;;;;;26.93;24.13;;;;;;;5.63;68.44;99413.81;6215202;28;20229;-69
2020/12/30 04:44:56;;;;;;;26.23;23.23;;;;;;;5.07;70.13;99423.00;6209523;28;20225;-69
2020/12/30 04:48:17;;;;;;;30.10;23.70;;;;;;;5.50;69.01;99417.41;6198854;28;20532;-68
2020/12/30 04:51:38;;;;;;;25.97;21.70;;;;;;;5.60;68.60;99421.59;6190655;28;20696;-69
2020/12/30 04:54:59;;;;;;;25.60;22.87;;;;;;;5.65;68.63;99422.41;6192940;28;20309;-69
2020/12/30 04:58:20;;;;;;;27.33;23.47;;;;;;;5.60;68.66;99429.34;6193843;28;20230;-68
2020/12/30 05:01:54;;;;;;;26.43;22.50;;;;;;;5.48;69.24;99419.16;6188851;28;20799;-69
2020/12/30 05:05:17;;;;;;;26.63;23.63;;;;;;;5.49;69.00;99428.63;6212299;28;20315;-68
2020/12/30 05:08:40;;;;;;;26.93;22.33;;;;;;;5.28;69.63;99447.75;6215786;28;20666;-68
2020/12/30 05:12:00;;;;;;;24.47;21.37;;;;;;;5.29;69.06;99424.50;6211846;28;20653;-68
2020/12/30 05:15:22;;;;;;;29.00;23.17;;;;;;;5.54;68.10;99437.16;6206873;28;20224;-69
2020/12/30 05:18:43;;;;;;;27.10;22.10;;;;;;;5.48;68.52;99435.47;6214539;28;20242;-69
2020/12/30 05:22:04;;;;;;;27.97;22.27;;;;;;;5.29;69.15;99441.69;6217504;28;20532;-69
2020/12/30 05:25:26;;;;;;;26.27;20.90;;;;;;;5.49;68.65;99436.38;6212851;28;20229;-69
2020/12/30 05:28:46;;;;;;;25.37;21.87;;;;;;;5.62;68.57;99448.28;6216985;28;20530;-69
2020/12/30 05:32:07;;;;;;;27.37;21.07;;;;;;;5.28;68.97;99447.75;6211506;28;20241;-69
2020/12/30 05:35:28;;;;;;;24.53;21.17;;;;;;;5.17;69.62;99445.25;6190741;28;20510;-69
2020/12/30 05:38:49;;;;;;;27.43;24.63;;;;;;;5.43;69.20;99449.31;6193752;28;20237;-69
2020/12/30 05:42:14;;;;;;;27.17;23.47;;;;;;;5.53;68.71;99449.22;6189980;28;20316;-68
2020/12/30 05:45:44;;;;;;;25.87;21.30;;;;;;;5.11;69.51;99458.22;6195574;28;20223;-69
2020/12/30 05:49:04;;;;;;;25.50;22.73;;;;;;;5.24;69.57;99461.56;6214370;28;20248;-70
2020/12/30 05:52:28;;;;;;;27.40;22.23;;;;;;;5.16;69.69;99456.47;6192202;28;20325;-69
2020/12/30 05:55:51;;;;;;;25.07;22.40;;;;;;;5.44;68.32;99463.94;6210789;28;20233;-69
2020/12/30 05:59:13;;;;;;;28.63;22.33;;;;;;;5.46;68.28;99450.13;6213281;28;20681;-69
2020/12/30 06:02:38;;;;;;;27.98;24.98;;;;;;;5.39;68.63;99470.88;6207580;28;20732;-69
2020/12/30 06:05:59;;;;;;;26.73;21.87;;;;;;;5.51;68.09;99469.03;6211245;28;20229;-69
2020/12/30 06:09:20;;;;;;;23.83;21.27;;;;;;;5.23;68.92;99465.00;6214042;28;20236;-69
2020/12/30 06:12:49;;;;;;;25.63;21.37;;;;;;;5.49;67.66;99475.09;6214324;28;20311;-69
2020/12/30 06:16:19;;;;;;;26.17;20.07;;;;;;;5.33;68.40;99480.41;6210196;28;20225;-69
2020/12/30 06:19:43;;;;;;;23.77;20.80;;;;;;;5.17;68.50;99476.22;6184186;28;20233;-69
2020/12/30 06:23:05;;;;;;;24.03;21.40;;;;;;;5.44;68.06;99479.44;6206183;28;20240;-69
2020/12/30 06:26:27;;;;;;;25.67;21.20;;;;;;;5.33;68.31;99493.31;6215210;28;20256;-69
2020/12/30 06:29:49;;;;;;;21.27;18.93;;;;;;;5.52;67.31;99482.78;6213141;28;20938;-69
2020/12/30 06:33:11;;;;;;;23.50;20.63;;;;;;;5.56;67.18;99484.47;6206233;28;20233;-69
2020/12/30 06:36:31;;;;;;;25.00;20.03;;;;;;;5.43;67.22;99494.09;6214772;28;20225;-69
2020/12/30 06:40:17;;;;;;;22.40;20.00;;;;;;;5.31;67.72;99509.66;6207151;28;20233;-68
2020/12/30 06:43:43;;;;;;;25.80;20.10;;;;;;;5.21;67.85;99511.47;6207971;28;20233;-68
2020/12/30 06:47:05;;;;;;;27.10;21.57;;;;;;;5.09;68.11;99504.69;6212755;28;20237;-70
2020/12/30 06:50:26;;;;;;;24.90;22.30;;;;;;;5.31;68.12;99507.09;6208649;28;20225;-71
2020/12/30 06:53:50;;;;;;;23.97;20.63;;;;;;;5.05;68.98;99517.63;6210776;28;20229;-71
2020/12/30 06:57:38;;;;;;;25.53;21.03;;;;;;;5.61;67.25;99513.69;6212595;28;20237;-76
2020/12/30 07:00:59;;;;;;;25.92;23.23;;;;;;;5.64;67.13;99529.19;6177447;28;20749;-74
2020/12/30 07:04:20;;;;;;;24.77;22.17;;;;;;;5.65;66.80;99523.13;6186508;28;20226;-73
2020/12/30 07:07:41;;;;;;;24.23;21.63;;;;;;;5.75;66.27;99531.66;6185800;28;20241;-71
2020/12/30 07:11:02;;;;;;;23.07;19.70;;;;;;;5.43;67.48;99537.97;6196380;28;20234;-72
2020/12/30 07:14:23;;;;;;;23.10;20.80;;;;;;;5.69;66.85;99550.63;6200871;28;20246;-74
2020/12/30 07:17:44;;;;;;;24.17;21.63;;;;;;;5.47;67.09;99550.00;6206581;28;20237;-73
2020/12/30 07:21:12;;;;;;;24.63;22.03;;;;;;;5.30;68.20;99560.44;6209076;28;20232;-71
2020/12/30 07:24:36;;;;;;;24.60;21.77;;;;;;;5.66;66.71;99558.44;6208595;28;20395;-75
2020/12/30 07:28:00;;;;;;;24.97;22.30;;;;;;;5.15;68.39;99565.72;6205034;28;20266;-74
2020/12/30 07:31:21;;;;;;;25.27;20.83;;;;;;;5.50;67.56;99562.00;6205059;28;20698;-71
2020/12/30 07:34:44;;;;;;;25.30;22.47;;;;;;;5.22;68.19;99577.72;6194161;28;20233;-71
2020/12/30 07:38:04;;;;;;;28.87;22.97;;;;;;;5.09;69.08;99584.69;6207580;28;20610;-73
2020/12/30 07:41:27;;;;;;;27.43;21.50;;;;;;;5.03;68.65;99581.28;6198254;28;20229;-70
2020/12/30 07:44:48;;;;;;;23.83;21.37;;;;;;;5.30;67.87;99575.94;6207511;28;20283;-65
2020/12/30 07:48:09;;;;;;;23.50;21.00;;;;;;;5.21;68.29;99590.63;6209239;28;20763;-74
2020/12/30 07:51:31;;;;;;;25.37;22.00;;;;;;;5.41;67.48;99577.56;6211513;28;20328;-71
2020/12/30 07:54:51;;;;;;;23.47;20.97;;;;;;;5.05;68.69;99587.31;6224152;28;20237;-73
2020/12/30 07:58:15;;;;;;;23.87;20.40;;;;;;;5.09;68.69;99594.16;6219862;28;20229;-75
2020/12/30 08:01:36;;;;;;;29.90;23.00;;;;;;;5.43;67.50;99591.31;6192028;28;22814;-75
2020/12/30 08:05:05;;;;;;;25.73;22.73;;;;;;;5.22;68.21;99610.44;6227017;28;20233;-74
2020/12/30 08:08:26;;;;;;;26.30;21.73;;;;;;;5.34;67.64;99607.75;6218209;28;20221;-71
2020/12/30 08:11:51;;;;;;;29.40;23.13;;;;;;;5.08;68.27;99626.84;6205989;28;20253;-72
2020/12/30 08:15:12;;;;;;;25.00;20.70;;;;;;;4.91;68.82;99638.97;6211116;28;20531;-78
2020/12/30 08:18:32;;;;;;;28.30;21.10;;;;;;;4.80;69.75;99633.00;6198379;28;20558;-74
2020/12/30 08:22:00;;;;;;;23.30;20.50;;;;;;;5.28;67.83;99634.47;6208695;28;20245;-72
2020/12/30 08:25:21;;;;;;;25.33;20.63;;;;;;;5.26;67.71;99631.03;6217380;28;20233;-76
2020/12/30 08:28:42;;;;;;;27.30;21.73;;;;;;;5.33;67.66;99637.00;6199426;28;20225;-77
2020/12/30 08:32:18;;;;;;;24.57;21.90;;;;;;;4.95;68.34;99660.47;6208226;28;20225;-69
2020/12/30 08:35:43;;;;;;;25.60;20.20;;;;;;;5.42;67.17;99641.25;6210496;28;20233;-67
2020/12/30 08:39:07;;;;;;;25.37;21.37;;;;;;;4.80;69.06;99649.34;6212851;28;20670;-69
2020/12/30 08:43:07;;;;;;;26.10;23.30;;;;;;;4.87;69.06;99648.47;6220565;28;20252;-71
2020/12/30 08:46:34;;;;;;;23.53;20.03;;;;;;;5.06;68.10;99649.22;6182553;28;20237;-71
2020/12/30 08:49:57;;;;;;;28.50;21.50;;;;;;;5.11;68.25;99636.28;6180082;28;20233;-72
2020/12/30 08:53:35;;;;;;;28.00;24.03;;;;;;;4.93;68.54;99656.16;6190889;28;23653;-73
2020/12/30 08:57:01;;;;;;;28.93;22.50;;;;;;;4.89;68.25;99656.19;6217402;28;20225;-70
2020/12/30 09:00:23;;;;;;;27.97;22.83;;;;;;;4.80;69.15;99663.97;6213354;28;20229;-72
2020/12/30 09:03:43;;;;;;;27.47;22.70;;;;;;;4.44;70.07;99676.09;6214376;28;20618;-69
2020/12/30 09:07:04;;;;;;;26.53;22.07;;;;;;;4.73;68.78;99663.16;6203064;28;20645;-71
2020/12/30 09:10:33;;;;;;;26.57;23.30;;;;;;;4.53;69.38;99668.34;6185330;28;21595;-70
2020/12/30 09:13:53;;;;;;;30.60;23.70;;;;;;;5.18;67.29;99663.78;6187846;28;20230;-71
2020/12/30 09:17:15;;;;;;;32.07;23.63;;;;;;;4.84;68.79;99670.81;6189645;28;20236;-67
2020/12/30 09:20:36;;;;;;;29.57;23.90;;;;;;;4.62;68.93;99677.78;6205144;28;20225;-70
2020/12/30 09:23:57;;;;;;;26.50;23.50;;;;;;;4.80;68.52;99687.19;6195336;28;20242;-71
2020/12/30 09:27:22;;;;;;;26.43;23.63;;;;;;;4.72;68.57;99687.22;6184781;28;20233;-70
2020/12/30 09:30:43;;;;;;;27.33;22.70;;;;;;;4.72;68.83;99692.38;6185134;28;20253;-75
2020/12/30 09:34:16;;;;;;;29.10;22.87;;;;;;;4.45;69.95;99690.72;6192917;28;20225;-69
2020/12/30 09:37:37;;;;;;;27.50;22.43;;;;;;;4.69;68.99;99690.66;6214290;28;22086;-74
2020/12/30 09:40:58;;;;;;;28.73;22.40;;;;;;;4.53;68.72;99692.41;6200471;28;20229;-74
2020/12/30 09:44:19;;;;;;;27.83;24.43;;;;;;;4.78;68.58;99696.66;6215121;28;20559;-74
2020/12/30 09:47:40;;;;;;;28.03;21.33;;;;;;;5.27;67.37;99688.69;6215275;28;20308;-70
2020/12/30 09:51:01;;;;;;;27.83;23.97;;;;;;;4.96;68.67;99695.72;6213432;28;20257;-76
2020/12/30 09:54:22;;;;;;;32.87;24.47;;;;;;;4.89;68.29;99697.47;6213534;28;20221;-76
2020/12/30 09:57:42;;;;;;;27.83;22.67;;;;;;;4.93;68.74;99694.88;6210039;28;20228;-80
2020/12/30 10:01:03;;;;;;;31.70;23.90;;;;;;;5.06;67.74;99702.53;6214679;28;20245;-73
2020/12/30 10:04:23;;;;;;;31.63;24.10;;;;;;;4.48;70.05;99701.03;6211942;28;20741;-70
2020/12/30 10:07:44;;;;;;;29.60;23.10;;;;;;;4.97;68.21;99692.28;6200153;28;20698;-68
2020/12/30 10:11:05;;;;;;;26.73;22.13;;;;;;;4.87;68.34;99702.63;6183717;28;20234;-69
2020/12/30 10:14:25;;;;;;;26.27;23.03;;;;;;;4.76;69.23;99700.97;6186231;28;20352;-69
2020/12/30 10:17:46;;;;;;;26.70;21.63;;;;;;;4.60;69.12;99716.47;6182980;28;20622;-74
2020/12/30 10:21:07;;;;;;;31.70;23.07;;;;;;;4.68;68.52;99724.19;6189330;28;20246;-71
2020/12/30 10:24:28;;;;;;;31.77;23.57;;;;;;;4.95;67.82;99706.91;6187101;28;20226;-76
2020/12/30 10:27:50;;;;;;;23.20;20.67;;;;;;;4.95;68.17;99722.41;6189462;28;20241;-70
2020/12/30 10:31:12;;;;;;;24.90;21.50;;;;;;;4.58;69.61;99720.78;6192386;28;20229;-68
2020/12/30 10:34:35;;;;;;;25.00;20.97;;;;;;;5.08;68.13;99724.06;6179401;28;20325;-71
2020/12/30 10:37:56;;;;;;;26.63;21.07;;;;;;;4.99;68.32;99726.69;6191852;28;20242;-69
2020/12/30 10:41:17;;;;;;;21.60;19.23;;;;;;;4.76;68.66;99721.59;6190420;28;20233;-69
2020/12/30 10:44:38;;;;;;;30.33;20.87;;;;;;;5.08;70.93;99718.91;6194926;28;20225;-73
2020/12/30 10:47:59;;;;;;;25.53;20.93;;;;;;;4.95;69.04;99746.47;6178125;28;20777;-70
2020/12/30 10:51:19;;;;;;;26.90;21.83;;;;;;;4.80;69.52;99723.28;6187165;28;20307;-73
2020/12/30 10:54:42;;;;;;;25.27;22.57;;;;;;;4.98;68.40;99722.38;6175036;28;20860;-72
2020/12/30 10:58:05;;;;;;;29.47;23.07;;;;;;;5.10;68.29;99719.75;6204325;28;20237;-70
2020/12/30 11:01:25;;;;;;;26.07;20.67;;;;;;;5.15;68.20;99720.56;6206377;28;20233;-68
2020/12/30 11:04:46;;;;;;;24.07;21.03;;;;;;;4.98;68.36;99709.47;6204750;28;20327;-69
2020/12/30 11:08:07;;;;;;;25.40;20.07;;;;;;;5.30;67.86;99719.66;6211260;28;20542;-70
2020/12/30 11:11:27;;;;;;;21.93;18.40;;;;;;;5.23;68.74;99716.22;6204212;28;20665;-68
2020/12/30 11:14:49;;;;;;;25.43;19.80;;;;;;;5.27;68.30;99714.50;6205708;28;20232;-68
2020/12/30 11:18:09;;;;;;;25.47;19.23;;;;;;;4.87;69.20;99712.09;6170566;28;20230;-69
2020/12/30 11:21:29;;;;;;;24.17;20.13;;;;;;;4.96;69.27;99726.69;6189734;28;20237;-69
2020/12/30 11:24:50;;;;;;;21.27;19.03;;;;;;;4.59;70.35;99719.91;6187781;28;20226;-69
2020/12/30 11:28:11;;;;;;;23.43;18.17;;;;;;;4.86;69.76;99718.97;6188757;28;20291;-67
2020/12/30 11:31:36;;;;;;;28.07;19.33;;;;;;;4.86;69.18;99718.97;6210506;28;20282;-68
2020/12/30 11:34:56;;;;;;;23.37;18.40;;;;;;;4.98;68.81;99712.03;6192187;28;20222;-68
2020/12/30 11:38:17;;;;;;;22.47;19.47;;;;;;;5.23;68.07;99721.38;6206733;28;20233;-67
2020/12/30 11:41:38;;;;;;;23.93;18.80;;;;;;;5.37;67.73;99711.03;6207446;28;20225;-68
2020/12/30 11:44:58;;;;;;;21.63;18.70;;;;;;;4.87;69.15;99720.69;6213313;28;20229;-69
2020/12/30 11:48:20;;;;;;;23.47;19.17;;;;;;;4.81;69.31;99723.28;6211506;28;20233;-68
2020/12/30 11:51:41;;;;;;;22.87;19.73;;;;;;;4.67;70.93;99717.31;6203871;28;20220;-72
2020/12/30 11:55:01;;;;;;;25.10;21.67;;;;;;;4.64;70.67;99733.66;6200181;28;20743;-74
2020/12/30 11:58:21;;;;;;;26.73;21.33;;;;;;;4.47;71.36;99725.09;6215041;28;20233;-74
2020/12/30 12:01:42;;;;;;;23.40;20.83;;;;;;;4.97;69.69;99746.47;6208709;28;20225;-74
2020/12/30 12:05:04;;;;;;;23.77;20.40;;;;;;;4.91;70.12;99735.28;6211460;28;20237;-73
2020/12/30 12:08:25;;;;;;;22.47;20.07;;;;;;;4.73;71.06;99727.63;6196068;28;20233;-72
2020/12/30 12:11:46;;;;;;;26.20;23.23;;;;;;;4.62;71.39;99737.09;6210980;28;20329;-72
2020/12/30 12:15:07;;;;;;;34.03;24.00;;;;;;;4.51;71.17;99747.41;6211998;28;20237;-73
2020/12/30 12:18:28;;;;;;;24.00;21.37;;;;;;;4.84;70.68;99741.31;6206342;28;20270;-74
2020/12/30 12:21:50;;;;;;;33.00;22.60;;;;;;;5.07;69.65;99730.94;6207355;28;20237;-72
2020/12/30 12:25:10;;;;;;;27.17;21.23;;;;;;;5.32;69.04;99744.59;6206530;28;20237;-73
2020/12/30 12:28:58;;;;;;;25.87;21.80;;;;;;;5.07;69.86;99737.81;6210986;28;20221;-72
2020/12/30 12:32:20;;;;;;;26.40;23.17;;;;;;;5.06;70.15;99746.41;6207579;28;20251;-73
2020/12/30 12:35:41;;;;;;;29.93;22.43;;;;;;;5.51;70.59;99745.34;6210175;28;20241;-73
2020/12/30 12:39:02;;;;;;;27.37;22.63;;;;;;;5.43;69.24;99741.97;6205875;28;20241;-72
2020/12/30 12:42:23;;;;;;;27.50;23.13;;;;;;;5.17;69.84;99739.50;6192277;28;20229;-72
2020/12/30 12:45:44;;;;;;;27.97;23.03;;;;;;;4.97;71.05;99734.41;6219236;28;20225;-74
2020/12/30 12:49:05;;;;;;;28.20;22.37;;;;;;;5.26;70.19;99733.44;6218526;28;20320;-74
2020/12/30 12:52:26;;;;;;;31.27;22.83;;;;;;;4.83;71.30;99751.69;6213390;28;20307;-74
2020/12/30 12:55:47;;;;;;;27.13;22.37;;;;;;;5.05;70.66;99739.56;6213393;28;20233;-74
2020/12/30 12:59:08;;;;;;;28.40;24.43;;;;;;;5.32;69.75;99738.56;6213638;28;20340;-70
2020/12/30 13:02:28;;;;;;;23.80;21.10;;;;;;;5.06;70.70;99736.97;6204200;28;20237;-71
2020/12/30 13:05:51;;;;;;;27.00;23.27;;;;;;;5.16;70.54;99750.69;6207853;28;20312;-72
2020/12/30 13:09:14;;;;;;;25.37;22.63;;;;;;;5.52;69.20;99746.22;6209986;28;20241;-68
2020/12/30 13:12:35;;;;;;;27.40;23.50;;;;;;;5.66;68.40;99743.53;6208083;28;20221;-68
2020/12/30 13:15:56;;;;;;;27.83;22.60;;;;;;;5.39;69.07;99750.59;6212328;28;20229;-75
2020/12/30 13:19:17;;;;;;;26.80;22.97;;;;;;;5.50;69.24;99743.63;6213262;28;20718;-77
2020/12/30 13:22:38;;;;;;;27.23;23.47;;;;;;;5.21;70.19;99761.84;6207645;28;20534;-78
2020/12/30 13:25:59;;;;;;;26.10;22.47;;;;;;;5.27;70.26;99761.84;6216771;28;20229;-75
2020/12/30 13:29:21;;;;;;;30.13;23.73;;;;;;;5.57;69.19;99765.13;6210894;28;20501;-82
2020/12/30 13:32:42;;;;;;;30.57;25.87;;;;;;;5.75;68.38;99763.31;6189339;28;20249;-69
2020/12/30 13:36:03;;;;;;;27.80;24.50;;;;;;;5.37;69.90;99762.66;6178202;28;20238;-76
2020/12/30 13:39:23;;;;;;;26.93;22.97;;;;;;;5.35;69.88;99769.56;6189010;28;20234;-73
2020/12/30 13:42:44;;;;;;;32.77;25.63;;;;;;;5.51;69.70;99771.19;6181323;28;20225;-70
2020/12/30 13:46:08;;;;;;;28.17;23.07;;;;;;;5.50;69.42;99764.28;6205318;28;20229;-74
2020/12/30 13:49:28;;;;;;;26.23;22.37;;;;;;;5.44;69.38;99773.81;6201153;28;20225;-73
2020/12/30 13:52:51;;;;;;;28.23;25.10;;;;;;;5.65;68.79;99780.59;6203202;28;20336;-72
2020/12/30 13:56:11;;;;;;;26.33;21.83;;;;;;;5.34;69.51;99780.72;6189034;28;20234;-74
2020/12/30 13:59:32;;;;;;;29.03;22.90;;;;;;;5.43;69.50;99783.28;6190691;28;20233;-74
2020/12/30 14:02:54;;;;;;;25.03;21.93;;;;;;;5.51;69.30;99780.66;6178813;28;20322;-74
2020/12/30 14:06:22;;;;;;;25.30;21.47;;;;;;;5.69;68.62;99790.03;6193932;28;20659;-80
2020/12/30 14:09:42;;;;;;;26.37;22.57;;;;;;;5.94;68.18;99787.31;6221550;28;20245;-70
2020/12/30 14:13:03;;;;;;;21.87;19.53;;;;;;;5.49;69.57;99795.31;6203600;28;20233;-69
2020/12/30 14:16:23;;;;;;;21.80;18.83;;;;;;;5.55;68.95;99790.09;6205340;28;20221;-70
2020/12/30 14:19:45;;;;;;;21.77;19.47;;;;;;;5.75;68.85;99796.91;6184652;28;20360;-68
2020/12/30 14:23:06;;;;;;;21.73;19.40;;;;;;;5.27;70.61;99808.31;6184987;28;20698;-69
2020/12/30 14:26:26;;;;;;;24.83;21.70;;;;;;;5.42;70.00;99796.19;6197327;28;20257;-69
2020/12/30 14:29:46;;;;;;;22.00;19.70;;;;;;;5.40;69.75;99795.34;6208359;28;20229;-69
2020/12/30 14:33:07;;;;;;;21.70;19.00;;;;;;;5.60;69.03;99805.56;6204127;28;20236;-69
2020/12/30 14:36:29;;;;;;;20.00;17.67;;;;;;;5.48;69.81;99815.09;6207320;28;20225;-69
2020/12/30 14:39:49;;;;;;;21.07;18.23;;;;;;;5.50;69.49;99815.09;6215667;28;20261;-68
2020/12/30 14:43:09;;;;;;;21.57;19.27;;;;;;;5.70;69.23;99807.25;6211065;28;20341;-69
2020/12/30 14:46:30;;;;;;;24.27;20.77;;;;;;;5.44;69.51;99817.69;6209931;28;20220;-69
2020/12/30 14:49:52;;;;;;;22.70;19.27;;;;;;;5.57;69.33;99823.69;6211230;28;20225;-69
2020/12/30 14:53:13;;;;;;;23.60;19.17;;;;;;;5.42;70.28;99816.84;6188060;28;20520;-69
2020/12/30 14:56:34;;;;;;;23.87;18.63;;;;;;;5.40;70.06;99821.16;6191496;28;20236;-69
2020/12/30 14:59:57;;;;;;;22.83;20.23;;;;;;;5.64;69.27;99830.50;6208795;28;20233;-69
2020/12/30 15:03:19;;;;;;;23.02;20.73;;;;;;;5.71;68.90;99835.66;6203395;28;20826;-69
2020/12/30 15:06:39;;;;;;;22.67;19.57;;;;;;;5.69;68.84;99827.06;6212936;28;20233;-69
2020/12/30 15:10:01;;;;;;;23.23;20.73;;;;;;;5.89;68.36;99831.25;6181089;28;20543;-69
2020/12/30 15:13:21;;;;;;;22.40;20.00;;;;;;;5.82;68.10;99822.69;6178828;28;20595;-69
2020/12/30 15:16:42;;;;;;;20.03;17.30;;;;;;;5.88;68.33;99832.13;6208278;28;20233;-68
2020/12/30 15:20:03;;;;;;;19.90;17.33;;;;;;;5.69;68.83;99833.94;6207962;28;20225;-69
2020/12/30 15:23:23;;;;;;;22.83;18.93;;;;;;;5.72;68.85;99837.38;6204704;28;21808;-69
2020/12/30 15:26:45;;;;;;;24.47;18.33;;;;;;;5.45;69.64;99842.69;6205319;28;20705;-69
2020/12/30 15:30:05;;;;;;;22.27;19.00;;;;;;;5.36;69.70;99853.03;6220143;28;20505;-70
2020/12/30 15:33:26;;;;;;;21.27;18.80;;;;;;;5.70;69.23;99846.88;6202480;28;20233;-69
2020/12/30 15:36:46;;;;;;;23.57;20.13;;;;;;;5.49;69.07;99847.81;6200058;28;20241;-69
2020/12/30 15:40:06;;;;;;;20.47;17.20;;;;;;;5.68;68.72;99855.47;6198320;28;20312;-69
2020/12/30 15:43:28;;;;;;;19.30;17.27;;;;;;;5.52;69.17;99860.72;6210701;28;20240;-70